Time;durP1;ratioP1;P1;durP2;ratioP2;P2;SDS_P1;SDS_P2;PMS_P1;PMS_P2;Temp;Humidity;BMP_temperature;BMP_pressure;BME280_temperature;BME280_humidity;BME280_pressure;Samples;Min_cycle;Max_cycle;Signal;HPM_P1;HPM_P2
2022/07/28 00:02:03;;;;;;;6.68;3.53;;;;;;;19.37;85.02;98823.84;5020041;28;20100;-57
2022/07/28 00:04:48;;;;;;;4.22;2.72;;;;;;;19.89;81.82;98822.81;5001070;28;20042;-57
2022/07/28 00:07:34;;;;;;;3.95;2.70;;;;;;;19.92;81.37;98819.81;5014558;28;20402;-58
2022/07/28 00:10:19;;;;;;;5.18;3.60;;;;;;;18.47;88.91;98819.53;5023923;28;20045;-58
2022/07/28 00:13:04;;;;;;;5.53;3.80;;;;;;;17.91;93.59;98818.91;5019067;28;20075;-58
2022/07/28 00:15:48;;;;;;;5.90;3.90;;;;;;;17.67;95.82;98823.81;5004649;28;20064;-57
2022/07/28 00:18:33;;;;;;;6.45;4.28;;;;;;;17.60;96.50;98815.66;5003677;28;20034;-57
2022/07/28 00:21:18;;;;;;;5.03;4.00;;;;;;;17.43;98.76;98821.75;5013285;28;20037;-57
2022/07/28 00:24:03;;;;;;;6.40;3.88;;;;;;;17.46;98.68;98824.09;5024492;28;20439;-58
2022/07/28 00:26:47;;;;;;;4.80;3.95;;;;;;;17.84;98.45;98819.50;5000030;28;20042;-59
2022/07/28 00:29:32;;;;;;;4.72;3.22;;;;;;;18.84;91.31;98814.97;5012932;28;20045;-56
2022/07/28 00:32:19;;;;;;;6.18;3.63;;;;;;;18.48;90.87;98807.13;5014143;28;20112;-57
2022/07/28 00:35:05;;;;;;;5.05;3.58;;;;;;;16.98;100.00;98801.19;5012821;28;20049;-57
2022/07/28 00:37:49;;;;;;;5.72;3.83;;;;;;;17.46;99.58;98803.72;4998337;28;20041;-57
2022/07/28 00:43:44;;;;;;;5.80;3.95;;;;;;;18.39;95.18;98819.50;5013608;28;20490;-56
2022/07/28 00:46:29;;;;;;;4.20;2.72;;;;;;;18.76;91.98;98814.91;5013285;28;20072;-56
2022/07/28 00:49:14;;;;;;;4.88;2.88;;;;;;;19.00;90.21;98805.41;5014499;28;20065;-58
2022/07/28 00:52:00;;;;;;;5.00;3.40;;;;;;;18.90;88.82;98805.53;5013113;28;20516;-57
2022/07/28 00:54:44;;;;;;;5.28;3.40;;;;;;;18.43;92.87;98815.53;5013501;28;20096;-57
2022/07/28 00:57:29;;;;;;;3.70;2.80;;;;;;;19.20;88.30;98810.50;5013725;28;20034;-57
2022/07/28 01:00:14;;;;;;;4.68;3.50;;;;;;;19.65;84.20;98803.16;5013639;28;20478;-58
2022/07/28 01:03:00;;;;;;;6.70;2.60;;;;;;;19.68;84.21;98800.16;5000806;28;20393;-58
2022/07/28 01:05:57;;;;;;;6.90;2.55;;;;;;;19.84;84.01;98803.84;5013888;28;20096;-57
2022/07/28 01:09:01;;;;;;;5.85;3.55;;;;;;;19.73;82.66;98799.66;5035023;28;20042;-57
2022/07/28 01:12:05;;;;;;;3.53;2.58;;;;;;;19.80;83.49;98799.84;5001081;28;20042;-58
2022/07/28 01:14:54;;;;;;;4.70;3.13;;;;;;;20.36;79.31;98806.34;5005450;28;20034;-58
2022/07/28 01:17:46;;;;;;;3.80;2.80;;;;;;;19.98;81.89;98802.34;5016892;28;20041;-58
2022/07/28 01:20:49;;;;;;;6.70;3.58;;;;;;;19.97;80.54;98799.84;5013591;28;20041;-58
2022/07/28 01:23:59;;;;;;;4.28;3.20;;;;;;;19.87;82.49;98800.03;5012222;28;20072;-57
2022/07/28 01:27:04;;;;;;;4.55;3.08;;;;;;;20.24;80.58;98803.22;5011482;28;20029;-57
2022/07/28 01:30:02;;;;;;;5.53;2.65;;;;;;;20.31;80.16;98799.72;5015549;28;20038;-58
2022/07/28 01:33:15;;;;;;;6.35;3.45;;;;;;;20.40;79.91;98799.72;5019003;28;20046;-56
2022/07/28 01:36:16;;;;;;;5.97;3.15;;;;;;;20.29;79.86;98801.72;5005461;28;20096;-57
2022/07/28 01:39:01;;;;;;;4.10;2.70;;;;;;;19.75;81.91;98804.84;5023515;28;20037;-57
2022/07/28 01:41:48;;;;;;;3.88;2.88;;;;;;;20.06;81.54;98805.06;5015109;28;20069;-57
2022/07/28 01:44:40;;;;;;;4.15;2.83;;;;;;;20.10;81.29;98805.56;5011745;28;20038;-58
2022/07/28 01:47:26;;;;;;;;;;;;;;;20.16;80.12;98806.69;5012011;28;20156;-57
2022/07/28 01:50:13;;;;;;;4.63;3.70;;;;;;;19.99;80.87;98808.50;5012829;28;20270;-58
2022/07/28 01:52:58;;;;;;;4.60;3.30;;;;;;;19.77;82.70;98805.50;5012584;28;20038;-58
2022/07/28 01:55:48;;;;;;;4.22;3.45;;;;;;;19.55;82.45;98803.28;5006363;28;20065;-58
2022/07/28 01:58:35;;;;;;;4.57;2.63;;;;;;;19.67;83.40;98801.16;5011840;28;20076;-57
2022/07/28 02:01:22;;;;;;;3.53;2.60;;;;;;;19.72;82.66;98794.50;5011291;28;20037;-58
2022/07/28 02:04:09;;;;;;;4.05;3.10;;;;;;;19.45;82.39;98802.63;5007814;28;20034;-60
2022/07/28 02:06:55;;;;;;;3.33;2.80;;;;;;;19.24;85.72;98792.44;5010149;28;20030;-58
2022/07/28 02:09:44;;;;;;;3.55;2.60;;;;;;;18.34;90.68;98798.72;5011490;28;20490;-57
2022/07/28 02:12:31;;;;;;;4.53;3.10;;;;;;;18.08;90.57;98796.03;5024902;28;20065;-58
2022/07/28 02:15:17;;;;;;;5.53;3.38;;;;;;;17.59;94.47;98786.66;5011371;28;20046;-58
2022/07/28 02:18:04;;;;;;;3.35;2.30;;;;;;;17.19;98.36;98781.59;4997495;28;20073;-57
2022/07/28 02:20:51;;;;;;;4.82;2.65;;;;;;;17.54;94.41;98784.47;5006170;28;20470;-56
2022/07/28 02:23:38;;;;;;;5.07;2.85;;;;;;;17.90;92.74;98788.09;5011148;28;20045;-62
2022/07/28 02:26:31;;;;;;;4.75;2.58;;;;;;;18.40;88.23;98788.50;5012709;28;20053;-63
2022/07/28 02:29:17;;;;;;;6.15;3.08;;;;;;;17.63;91.75;98787.19;5011416;28;20034;-63
2022/07/28 02:32:52;;;;;;;6.97;3.45;;;;;;;17.05;94.52;98796.13;5024832;28;20058;-62
2022/07/28 02:35:42;;;;;;;6.57;3.00;;;;;;;17.52;93.93;98786.41;5011461;28;20053;-63
2022/07/28 02:38:29;;;;;;;5.78;3.45;;;;;;;17.84;91.54;98786.88;5010357;28;20474;-63
2022/07/28 02:41:28;;;;;;;3.65;2.20;;;;;;;17.84;92.24;98787.72;5011290;28;20490;-63
2022/07/28 02:44:22;;;;;;;8.32;3.58;;;;;;;17.48;93.38;98783.22;5011722;28;20076;-63
2022/07/28 02:47:11;;;;;;;6.00;3.08;;;;;;;17.96;90.50;98788.31;5021968;28;20474;-62
2022/07/28 02:49:59;;;;;;;6.07;3.25;;;;;;;17.70;92.82;98793.53;4984608;28;20386;-64
2022/07/28 02:52:45;;;;;;;3.95;2.70;;;;;;;17.24;95.17;98784.66;5007976;28;20046;-61
2022/07/28 02:55:31;;;;;;;4.68;2.78;;;;;;;17.07;95.31;98793.34;5005712;28;20038;-62
2022/07/28 02:58:20;;;;;;;4.65;3.35;;;;;;;16.72;98.15;98798.34;4998459;28;20462;-71
2022/07/28 03:01:05;;;;;;;5.10;3.17;;;;;;;17.03;97.73;98794.59;5024274;28;20455;-70
2022/07/28 03:03:50;;;;;;;6.65;4.50;;;;;;;17.30;94.73;98800.94;5010077;28;20073;-72
2022/07/28 03:06:36;;;;;;;5.00;3.63;;;;;;;17.01;96.31;98805.34;5021580;28;20451;-71
2022/07/28 03:09:20;;;;;;;4.55;2.78;;;;;;;17.60;93.81;98806.84;5009380;28;20030;-70
2022/07/28 03:12:06;;;;;;;6.05;3.50;;;;;;;17.91;89.78;98808.31;4995933;28;20030;-68
2022/07/28 03:14:51;;;;;;;6.25;3.60;;;;;;;17.67;90.73;98801.78;5020015;28;20045;-69
2022/07/28 03:17:35;;;;;;;6.85;3.65;;;;;;;17.92;90.09;98808.16;5009196;28;20117;-73
2022/07/28 03:20:20;;;;;;;4.75;3.83;;;;;;;17.87;89.45;98810.41;4996462;28;20041;-72
2022/07/28 03:23:06;;;;;;;6.50;3.95;;;;;;;17.19;93.27;98808.06;5009980;28;20084;-76
2022/07/28 03:25:55;;;;;;;5.05;3.60;;;;;;;17.71;91.42;98811.94;5000076;28;20060;-75
2022/07/28 03:28:42;;;;;;;6.88;3.45;;;;;;;17.78;90.10;98816.63;5023347;28;20231;-72
2022/07/28 03:31:30;;;;;;;7.47;4.75;;;;;;;18.20;87.62;98821.34;5011244;28;20046;-74
2022/07/28 03:34:15;;;;;;;7.47;3.83;;;;;;;18.10;88.12;98817.91;5009938;28;20132;-74
2022/07/28 03:37:10;;;;;;;4.88;3.70;;;;;;;17.52;90.31;98823.50;5010958;28;20046;-74
2022/07/28 03:39:58;;;;;;;7.53;4.75;;;;;;;17.43;91.49;98822.56;5023895;28;20119;-71
2022/07/28 03:42:46;;;;;;;5.28;3.72;;;;;;;17.39;92.41;98828.31;5011011;28;20066;-71
2022/07/28 03:45:31;;;;;;;6.30;4.15;;;;;;;17.42;92.30;98831.50;5010491;28;20463;-73
2022/07/28 03:48:16;;;;;;;4.95;3.97;;;;;;;17.34;93.48;98832.25;5020471;28;20119;-72
2022/07/28 03:51:01;;;;;;;6.32;3.95;;;;;;;18.32;88.30;98834.34;5024948;28;20475;-72
2022/07/28 03:53:47;;;;;;;11.85;3.88;;;;;;;18.59;86.33;98836.03;5009835;28;20108;-72
2022/07/28 03:56:31;;;;;;;6.32;4.47;;;;;;;18.10;87.54;98836.47;4999562;28;20069;-70
2022/07/28 03:59:17;;;;;;;5.13;3.72;;;;;;;17.71;90.50;98834.94;5010751;28;20125;-59
2022/07/28 04:02:03;;;;;;;5.30;3.45;;;;;;;18.34;89.00;98837.69;5010217;28;20065;-56
2022/07/28 04:04:49;;;;;;;3.88;2.72;;;;;;;19.10;83.74;98836.34;4995701;28;20041;-55
2022/07/28 04:07:39;;;;;;;7.80;5.47;;;;;;;18.40;85.67;98842.38;5009742;28;20072;-58
2022/07/28 04:10:24;;;;;;;7.95;5.00;;;;;;;18.10;88.57;98839.09;5010174;28;20108;-57
2022/07/28 04:13:08;;;;;;;8.40;5.75;;;;;;;17.72;90.45;98844.56;5013479;28;20050;-58
2022/07/28 04:15:53;;;;;;;6.60;4.53;;;;;;;18.37;88.68;98847.16;5014322;28;20069;-59
2022/07/28 04:18:41;;;;;;;4.95;3.00;;;;;;;19.52;82.43;98848.78;5013565;28;20030;-58
2022/07/28 04:21:26;;;;;;;7.32;4.78;;;;;;;19.04;83.08;98843.09;5013947;28;20041;-58
2022/07/28 04:24:11;;;;;;;7.90;4.78;;;;;;;18.70;85.34;98850.03;5014596;28;20096;-58
2022/07/28 04:26:56;;;;;;;5.53;4.00;;;;;;;19.35;83.29;98853.22;5006371;28;20116;-57
2022/07/28 04:29:41;;;;;;;6.05;4.60;;;;;;;19.39;81.58;98856.38;5014656;28;20041;-58
2022/07/28 04:32:26;;;;;;;6.05;4.25;;;;;;;18.89;84.14;98856.09;5015202;28;20046;-55
2022/07/28 04:35:12;;;;;;;5.57;4.20;;;;;;;19.79;80.54;98862.81;5001671;28;20052;-59
2022/07/28 04:37:57;;;;;;;7.10;4.65;;;;;;;19.73;80.18;98857.31;5016694;28;20038;-56
2022/07/28 04:40:41;;;;;;;6.28;4.18;;;;;;;19.50;80.33;98855.25;5014006;28;20129;-57
2022/07/28 04:43:26;;;;;;;7.30;4.40;;;;;;;19.32;82.54;98854.34;5013344;28;20062;-59
2022/07/28 04:46:11;;;;;;;6.72;4.43;;;;;;;19.35;80.47;98861.19;5026866;28;20041;-58
2022/07/28 04:48:56;;;;;;;7.30;5.03;;;;;;;18.94;83.03;98870.59;5028104;28;20053;-56
2022/07/28 04:51:40;;;;;;;5.78;4.53;;;;;;;19.23;82.78;98863.28;5012575;28;20060;-57
2022/07/28 04:54:25;;;;;;;5.43;4.07;;;;;;;19.90;79.58;98866.13;5014067;28;20050;-57
2022/07/28 04:57:10;;;;;;;8.77;4.15;;;;;;;20.16;78.03;98865.19;5027461;28;20038;-58
2022/07/28 04:59:56;;;;;;;5.28;3.90;;;;;;;20.28;77.19;98865.72;5012237;28;20038;-58
2022/07/28 05:02:43;;;;;;;5.93;3.83;;;;;;;20.49;76.25;98873.19;5001662;28;20042;-56
2022/07/28 05:05:28;;;;;;;4.15;3.25;;;;;;;20.31;76.75;98866.22;5024680;28;20057;-60
2022/07/28 05:08:12;;;;;;;4.30;2.85;;;;;;;20.39;76.55;98872.53;5013277;28;20391;-58
2022/07/28 05:10:57;;;;;;;3.90;2.58;;;;;;;20.67;75.13;98873.00;5012447;28;20034;-57
2022/07/28 05:13:42;;;;;;;6.32;3.55;;;;;;;20.64;75.01;98868.03;5012830;28;20046;-60
2022/07/28 05:16:26;;;;;;;3.70;2.85;;;;;;;20.76;74.50;98871.16;5026479;28;20467;-60
2022/07/28 05:19:12;;;;;;;5.75;2.92;;;;;;;21.11;73.10;98873.59;5012027;28;20084;-60
2022/07/28 05:21:56;;;;;;;5.57;2.70;;;;;;;21.27;71.88;98875.38;5011605;28;20478;-60
2022/07/28 05:24:41;;;;;;;3.90;2.55;;;;;;;21.71;70.17;98877.66;5013430;28;20041;-60
2022/07/28 05:27:26;;;;;;;4.88;2.78;;;;;;;21.75;69.55;98863.84;5012577;28;20061;-60
2022/07/28 05:30:12;;;;;;;5.18;2.50;;;;;;;21.49;70.29;98872.97;5012076;28;20117;-60
2022/07/28 05:33:00;;;;;;;4.22;2.95;;;;;;;21.23;72.61;98866.09;5012286;28;20112;-59
2022/07/28 05:35:51;;;;;;;4.65;2.78;;;;;;;21.64;71.36;98873.03;5007839;28;20113;-59
2022/07/28 05:38:36;;;;;;;4.55;3.17;;;;;;;21.65;71.04;98873.88;5013245;28;20100;-59
2022/07/28 05:41:20;;;;;;;6.82;2.53;;;;;;;21.60;69.79;98870.91;5008871;28;20050;-60
2022/07/28 05:44:06;;;;;;;6.05;2.55;;;;;;;21.22;70.12;98877.72;5012184;28;20041;-59
2022/07/28 05:46:51;;;;;;;4.35;2.47;;;;;;;21.19;71.70;98882.56;5008407;28;20062;-61
2022/07/28 05:49:36;;;;;;;4.35;2.60;;;;;;;20.19;75.21;98894.13;5025833;28;20045;-59
2022/07/28 05:52:20;;;;;;;3.70;2.05;;;;;;;20.99;73.18;98891.78;5011830;28;20053;-59
2022/07/28 05:55:07;;;;;;;4.90;1.90;;;;;;;22.07;68.63;98892.31;5010984;28;20038;-59
2022/07/28 05:57:54;;;;;;;3.55;1.65;;;;;;;22.08;66.96;98893.97;5010823;28;20045;-58
2022/07/28 06:00:38;;;;;;;3.03;2.42;;;;;;;21.87;67.82;98896.25;5025595;28;20041;-58
2022/07/28 06:03:23;;;;;;;5.05;2.22;;;;;;;21.55;70.09;98898.06;5011205;28;20037;-60
2022/07/28 06:06:09;;;;;;;3.83;1.95;;;;;;;21.75;68.77;98900.31;5013487;28;20045;-58
2022/07/28 06:08:53;;;;;;;3.17;1.90;;;;;;;22.26;67.38;98905.16;5000731;28;20446;-58
2022/07/28 06:11:38;;;;;;;4.72;2.17;;;;;;;23.12;64.52;98910.44;5010706;28;20434;-67
2022/07/28 06:14:23;;;;;;;3.92;2.33;;;;;;;22.56;64.61;98906.28;5011447;28;20129;-67
2022/07/28 06:17:08;;;;;;;4.50;2.70;;;;;;;22.32;69.44;98906.31;5024958;28;20371;-67
2022/07/28 06:19:53;;;;;;;5.65;2.70;;;;;;;21.81;66.99;98906.78;5010300;28;20394;-67
2022/07/28 06:22:46;;;;;;;5.13;2.60;;;;;;;20.80;73.12;98908.91;5025105;28;20383;-69
2022/07/28 06:25:30;;;;;;;4.18;2.55;;;;;;;21.03;71.44;98910.91;5010575;28;20080;-67
2022/07/28 06:28:17;;;;;;;4.35;2.50;;;;;;;19.87;75.03;98914.31;5012033;28;20041;-73
2022/07/28 06:31:02;;;;;;;6.15;2.60;;;;;;;19.67;77.26;98927.88;4996851;28;20173;-63
2022/07/28 06:33:47;;;;;;;4.25;2.22;;;;;;;19.11;79.08;98925.63;5008472;28;20481;-60
2022/07/28 06:36:32;;;;;;;6.93;3.17;;;;;;;19.96;78.78;98915.16;4983277;28;20045;-61
2022/07/28 06:39:16;;;;;;;5.97;2.58;;;;;;;20.52;75.19;98917.25;5024125;28;20103;-69
2022/07/28 06:42:01;;;;;;;5.05;2.55;;;;;;;20.94;73.49;98920.72;5011401;28;20049;-67
2022/07/28 06:44:46;;;;;;;4.55;2.47;;;;;;;20.22;74.51;98923.03;4993434;28;20120;-69
2022/07/28 06:47:31;;;;;;;5.80;2.88;;;;;;;19.93;75.75;98918.97;5029988;28;20052;-72
2022/07/28 06:50:16;;;;;;;7.97;3.20;;;;;;;19.61;77.08;98924.03;4998190;28;20041;-71
2022/07/28 06:53:01;;;;;;;6.03;2.30;;;;;;;19.32;78.50;98934.03;5018931;28;20096;-72
2022/07/28 06:55:46;;;;;;;6.38;2.75;;;;;;;19.59;76.95;98931.31;5020152;28;20467;-70
2022/07/28 06:58:30;;;;;;;8.07;2.88;;;;;;;19.43;77.83;98943.56;5011741;28;20037;-71
2022/07/28 07:01:15;;;;;;;4.57;2.45;;;;;;;19.89;76.99;98933.59;5010807;28;20073;-71
2022/07/28 07:03:59;;;;;;;4.15;2.55;;;;;;;21.12;72.85;98941.03;5010874;28;20065;-70
2022/07/28 07:06:44;;;;;;;6.35;2.50;;;;;;;21.06;70.82;98942.50;5008908;28;20367;-69
2022/07/28 07:09:29;;;;;;;5.15;2.35;;;;;;;20.42;73.17;98933.38;5010177;28;20502;-69
2022/07/28 07:12:14;;;;;;;10.32;2.75;;;;;;;21.69;71.43;98935.66;5008416;28;20053;-69
2022/07/28 07:15:03;;;;;;;6.18;3.10;;;;;;;21.59;69.36;98931.34;5013853;28;20391;-69
2022/07/28 07:17:48;;;;;;;6.50;3.28;;;;;;;21.77;69.63;98924.97;5043253;28;20103;-68
2022/07/28 07:20:36;;;;;;;4.45;2.53;;;;;;;23.10;65.11;98921.31;5010658;28;20038;-68
2022/07/28 07:23:21;;;;;;;5.05;3.28;;;;;;;22.90;63.52;98923.69;5009657;28;20084;-69
2022/07/28 07:26:05;;;;;;;6.80;3.38;;;;;;;22.97;63.92;98918.44;4997710;28;20050;-70
2022/07/28 07:28:50;;;;;;;7.72;3.30;;;;;;;23.29;61.82;98921.75;5005321;28;20112;-68
2022/07/28 07:31:36;;;;;;;5.45;2.97;;;;;;;22.58;64.83;98921.13;4992081;28;20041;-68
2022/07/28 07:34:21;;;;;;;7.55;3.60;;;;;;;23.16;62.50;98910.91;4997686;28;20375;-67
2022/07/28 07:37:06;;;;;;;6.57;2.97;;;;;;;23.23;61.97;98917.16;4978832;28;20045;-51
2022/07/28 07:39:51;;;;;;;7.07;2.80;;;;;;;23.84;59.28;98908.09;5009868;28;20030;-58
2022/07/28 07:42:37;;;;;;;5.63;3.38;;;;;;;23.20;61.25;98913.03;5010926;28;20085;-62
2022/07/28 07:45:22;;;;;;;7.00;2.83;;;;;;;23.92;60.09;98899.13;5000610;28;20038;-59
2022/07/28 07:48:06;;;;;;;4.85;2.50;;;;;;;25.05;56.18;98899.47;5018265;28;20049;-62
2022/07/28 07:50:51;;;;;;;4.30;2.75;;;;;;;25.47;54.83;98885.25;5004324;28;20038;-60
2022/07/28 07:53:36;;;;;;;4.05;2.70;;;;;;;25.73;53.53;98883.72;5005633;28;20045;-62
2022/07/28 07:56:21;;;;;;;4.53;2.50;;;;;;;25.74;54.18;98890.72;5024340;28;20042;-62
2022/07/28 07:59:06;;;;;;;5.18;2.95;;;;;;;25.80;52.95;98891.78;5014756;28;20081;-64
2022/07/28 08:01:53;;;;;;;5.03;2.58;;;;;;;25.16;54.96;98902.63;5012729;28;20037;-61
2022/07/28 08:04:38;;;;;;;3.17;2.05;;;;;;;25.27;57.54;98907.44;5011619;28;20065;-62
2022/07/28 08:07:23;;;;;;;4.50;1.83;;;;;;;25.34;55.97;98902.94;5012813;28;20482;-62
2022/07/28 08:10:08;;;;;;;3.58;2.20;;;;;;;24.66;59.55;98906.19;5011640;28;20389;-63
2022/07/28 08:12:53;;;;;;;2.58;1.83;;;;;;;24.98;58.42;98909.34;4999376;28;20033;-61
2022/07/28 08:15:38;;;;;;;6.25;2.10;;;;;;;25.19;58.94;98915.63;5013083;28;20038;-61
2022/07/28 08:18:22;;;;;;;3.75;2.20;;;;;;;25.76;56.09;98922.72;5016152;28;20088;-61
2022/07/28 08:21:07;;;;;;;5.45;2.10;;;;;;;25.60;56.18;98916.66;5023707;28;20486;-62
2022/07/28 08:23:54;;;;;;;2.65;1.90;;;;;;;25.48;57.11;98913.72;5019121;28;20056;-62
2022/07/28 08:26:39;;;;;;;2.47;1.88;;;;;;;25.31;57.46;98919.41;5008434;28;20042;-61
2022/07/28 08:29:23;;;;;;;5.30;2.08;;;;;;;25.48;55.94;98924.44;5027336;28;20522;-63
2022/07/28 08:32:08;;;;;;;8.25;2.45;;;;;;;25.38;56.82;98918.63;5012508;28;20094;-61
2022/07/28 08:34:53;;;;;;;4.68;1.77;;;;;;;25.38;56.69;98921.31;5012585;28;20053;-62
2022/07/28 08:37:38;;;;;;;4.50;2.25;;;;;;;24.60;59.18;98916.66;5019093;28;20037;-62
2022/07/28 08:40:24;;;;;;;6.00;2.25;;;;;;;24.67;59.96;98908.69;5027192;28;20375;-62
2022/07/28 08:43:22;;;;;;;6.07;1.88;;;;;;;24.68;58.71;98906.81;5024134;28;20049;-61
2022/07/28 08:46:08;;;;;;;6.00;2.38;;;;;;;25.54;55.15;98898.69;5001061;28;20046;-63
2022/07/28 08:48:52;;;;;;;3.42;1.75;;;;;;;26.15;55.33;98893.50;5026946;28;20041;-61
2022/07/28 08:51:40;;;;;;;3.78;1.75;;;;;;;26.36;55.00;98897.88;5013764;28;20038;-62
2022/07/28 08:54:27;;;;;;;3.30;1.70;;;;;;;26.27;53.52;98899.94;5027258;28;20418;-63
2022/07/28 08:57:19;;;;;;;6.57;2.22;;;;;;;26.81;53.27;98901.81;5013500;28;20042;-63
2022/07/28 09:00:04;;;;;;;3.35;1.65;;;;;;;27.50;52.68;98892.53;5011253;28;20096;-61
2022/07/28 09:02:50;;;;;;;3.97;1.85;;;;;;;28.19;51.48;98888.47;5013497;28;20497;-62
2022/07/28 09:05:36;;;;;;;4.25;2.05;;;;;;;29.20;45.79;98895.66;5012576;28;20447;-62
2022/07/28 09:08:21;;;;;;;4.57;1.70;;;;;;;28.91;48.60;98895.31;5013450;28;20074;-62
2022/07/28 09:11:07;;;;;;;3.85;2.47;;;;;;;28.18;47.78;98879.56;5012360;28;20041;-62
2022/07/28 09:13:53;;;;;;;4.20;2.30;;;;;;;28.19;48.25;98891.16;5026029;28;20172;-62
2022/07/28 09:16:41;;;;;;;2.55;1.63;;;;;;;28.85;47.27;98904.28;5013195;28;20052;-62
2022/07/28 09:19:26;;;;;;;5.65;2.22;;;;;;;29.11;45.69;98894.31;5012739;28;20042;-62
2022/07/28 09:22:12;;;;;;;5.45;3.22;;;;;;;29.22;46.53;98892.72;5012584;28;20041;-62
2022/07/28 09:24:57;;;;;;;4.22;2.00;;;;;;;29.68;46.72;98889.69;5007662;28;20340;-61
2022/07/28 09:27:43;;;;;;;5.10;2.15;;;;;;;30.20;43.33;98891.06;5013288;28;20442;-61
2022/07/28 09:30:35;;;;;;;4.30;2.40;;;;;;;30.02;45.70;98895.44;5012926;28;20030;-62
2022/07/28 09:33:21;;;;;;;2.95;1.58;;;;;;;30.44;45.25;98891.13;5011042;28;20132;-62
2022/07/28 09:36:14;;;;;;;5.32;2.17;;;;;;;30.93;42.61;98882.78;5001414;28;20077;-61
2022/07/28 09:38:58;;;;;;;3.53;1.98;;;;;;;30.58;43.06;98884.41;5012641;28;20045;-62
2022/07/28 09:41:48;;;;;;;6.15;1.77;;;;;;;30.65;43.19;98880.78;5012141;28;20038;-62
2022/07/28 09:44:35;;;;;;;3.13;1.95;;;;;;;30.64;42.67;98879.94;5000203;28;20092;-62
2022/07/28 09:47:26;;;;;;;2.22;1.50;;;;;;;30.65;45.20;98878.88;5012713;28;20514;-62
2022/07/28 09:50:20;;;;;;;2.90;1.92;;;;;;;31.38;40.85;98875.06;5013161;28;20471;-62
2022/07/28 09:53:23;;;;;;;9.15;2.13;;;;;;;31.93;42.21;98872.81;5012180;28;20053;-62
2022/07/28 09:56:09;;;;;;;3.92;1.98;;;;;;;32.06;41.50;98868.19;5012187;28;20145;-62
2022/07/28 09:58:58;;;;;;;3.72;1.85;;;;;;;33.52;40.49;98856.63;5013153;28;20042;-61
2022/07/28 10:01:52;;;;;;;3.13;2.15;;;;;;;32.68;38.42;98855.59;5001761;28;20123;-61
2022/07/28 10:04:40;;;;;;;3.30;1.95;;;;;;;33.47;38.34;98857.41;5012900;28;20041;-62
2022/07/28 10:07:29;;;;;;;4.38;2.15;;;;;;;32.80;37.00;98857.38;5011248;28;20449;-62
2022/07/28 10:10:18;;;;;;;3.83;2.15;;;;;;;33.57;35.35;98847.72;5006653;28;20046;-62
2022/07/28 10:13:05;;;;;;;5.13;2.70;;;;;;;33.50;35.50;98848.75;5009341;28;20378;-61
2022/07/28 10:16:10;;;;;;;4.00;2.58;;;;;;;32.14;36.32;98845.28;5011345;28;20030;-61
2022/07/28 10:18:59;;;;;;;2.97;2.10;;;;;;;32.93;39.13;98850.78;5012954;28;20045;-63
2022/07/28 10:21:48;;;;;;;5.78;2.08;;;;;;;33.41;37.80;98842.16;5012504;28;20046;-62
2022/07/28 10:24:37;;;;;;;3.58;1.88;;;;;;;33.46;39.07;98838.66;5011748;28;20109;-62
2022/07/28 10:27:24;;;;;;;3.72;1.70;;;;;;;33.97;36.94;98840.22;5010865;28;20046;-60
2022/07/28 10:30:11;;;;;;;3.50;1.85;;;;;;;34.83;34.29;98832.13;5012138;28;20535;-62
2022/07/28 10:33:03;;;;;;;2.72;2.20;;;;;;;34.06;34.61;98827.84;5010422;28;20061;-62
2022/07/28 10:35:49;;;;;;;2.92;2.00;;;;;;;35.14;31.77;98828.75;5012038;28;20777;-61
2022/07/28 10:38:35;;;;;;;6.93;2.65;;;;;;;35.65;32.01;98832.66;5011300;28;20475;-62
2022/07/28 10:41:22;;;;;;;3.08;1.63;;;;;;;35.82;29.70;98818.00;5011505;28;20460;-62
2022/07/28 10:44:12;;;;;;;2.80;1.73;;;;;;;36.10;30.19;98821.28;5011565;28;20048;-63
2022/07/28 10:46:58;;;;;;;3.47;1.92;;;;;;;36.37;31.22;98814.72;5010099;28;20045;-62
2022/07/28 10:49:43;;;;;;;4.38;1.73;;;;;;;36.40;30.81;98816.06;5009306;28;20033;-60
2022/07/28 10:52:28;;;;;;;3.05;1.52;;;;;;;35.70;30.57;98818.22;4996466;28;20053;-61
2022/07/28 10:55:32;;;;;;;3.15;1.60;;;;;;;36.32;30.41;98801.09;5021441;28;20038;-62
2022/07/28 10:58:38;;;;;;;3.20;1.92;;;;;;;34.85;30.07;98805.50;5009174;28;20061;-62
2022/07/28 11:01:36;;;;;;;3.45;1.73;;;;;;;33.94;32.42;98806.28;5009168;28;20041;-63
2022/07/28 11:04:39;;;;;;;3.45;1.70;;;;;;;32.92;37.01;98809.28;5010282;28;20065;-62
2022/07/28 11:07:37;;;;;;;3.10;1.70;;;;;;;32.57;37.56;98807.75;5011324;28;20057;-62
2022/07/28 11:10:22;;;;;;;3.65;1.75;;;;;;;32.49;37.93;98808.97;5008742;28;20042;-60
2022/07/28 11:13:25;;;;;;;3.58;1.65;;;;;;;33.12;36.19;98812.50;5011540;28;20042;-62
2022/07/28 11:16:13;;;;;;;3.22;1.45;;;;;;;33.03;36.63;98806.69;5011241;28;20061;-62
2022/07/28 11:19:10;;;;;;;3.25;1.73;;;;;;;32.73;37.02;98818.78;5005506;28;20037;-62
2022/07/28 11:25:00;;;;;;;2.45;1.70;;;;;;;32.81;36.66;98810.22;5024244;28;20038;-60
2022/07/28 11:27:53;;;;;;;2.42;1.77;;;;;;;32.20;36.20;98809.91;5015020;28;20096;-61
2022/07/28 11:30:37;;;;;;;2.83;1.55;;;;;;;32.48;37.91;98806.50;5023532;28;20073;-64
2022/07/28 11:33:23;;;;;;;2.83;1.60;;;;;;;33.14;38.03;98811.19;5010464;28;20146;-64
2022/07/28 11:36:08;;;;;;;5.13;1.80;;;;;;;35.10;33.25;98801.25;5004869;28;20034;-65
2022/07/28 11:39:21;;;;;;;4.05;1.90;;;;;;;34.81;33.57;98806.31;5011497;28;20042;-62
2022/07/28 11:42:29;;;;;;;4.57;1.50;;;;;;;34.52;33.33;98802.88;5008544;28;20042;-64
2022/07/28 11:45:22;;;;;;;2.67;1.80;;;;;;;34.49;35.32;98808.84;5010515;28;20385;-64
2022/07/28 11:48:15;;;;;;;2.05;1.40;;;;;;;34.00;30.93;98801.69;5011357;28;20052;-61
2022/07/28 11:51:03;;;;;;;4.55;1.75;;;;;;;32.29;32.11;98804.91;4983276;28;20038;-61
2022/07/28 11:53:51;;;;;;;2.80;1.60;;;;;;;32.72;36.38;98809.84;5006943;28;20378;-62
2022/07/28 11:56:36;;;;;;;3.08;1.60;;;;;;;33.78;34.58;98800.72;5010080;28;20066;-61
2022/07/28 11:59:21;;;;;;;3.50;1.60;;;;;;;34.61;33.04;98807.81;5010865;28;20038;-62
2022/07/28 12:02:05;;;;;;;2.17;1.20;;;;;;;34.88;31.29;98806.88;5014956;28;20037;-62
2022/07/28 12:05:04;;;;;;;2.13;1.50;;;;;;;34.67;29.66;98795.06;5011386;28;20061;-62
2022/07/28 12:07:50;;;;;;;2.28;1.35;;;;;;;35.49;31.18;98793.72;5015025;28;20046;-62
2022/07/28 12:10:35;;;;;;;2.15;1.35;;;;;;;36.17;32.47;98786.38;5012816;28;20034;-63
2022/07/28 12:13:26;;;;;;;2.40;1.70;;;;;;;35.82;28.88;98786.16;5009166;28;20509;-60
2022/07/28 12:16:12;;;;;;;2.30;1.05;;;;;;;36.48;33.01;98789.06;5010483;28;20037;-62
2022/07/28 12:19:00;;;;;;;1.98;1.27;;;;;;;36.44;29.51;98787.97;5022154;28;20047;-62
2022/07/28 12:21:49;;;;;;;1.52;1.15;;;;;;;37.09;24.42;98777.34;5006904;28;20037;-62
2022/07/28 12:24:34;;;;;;;2.60;1.48;;;;;;;35.65;24.73;98777.41;5002309;28;20038;-64
2022/07/28 12:27:26;;;;;;;2.08;1.15;;;;;;;35.90;28.50;98778.50;5009169;28;20053;-62
2022/07/28 12:30:11;;;;;;;3.97;1.45;;;;;;;35.51;24.48;98786.09;5010526;28;20387;-63
2022/07/28 12:33:15;;;;;;;2.15;1.20;;;;;;;35.07;30.52;98777.28;5010218;28;20185;-65
2022/07/28 12:35:59;;;;;;;3.53;1.20;;;;;;;36.49;24.51;98770.78;5024314;28;20080;-63
2022/07/28 12:38:44;;;;;;;5.20;1.20;;;;;;;36.98;23.84;98766.50;5015965;28;20061;-61
2022/07/28 12:41:33;;;;;;;1.80;1.05;;;;;;;35.58;26.87;98777.69;5020164;28;20053;-60
2022/07/28 12:44:18;;;;;;;1.13;0.95;;;;;;;35.67;23.01;98765.16;5020218;28;20050;-60
2022/07/28 12:47:12;;;;;;;1.17;0.90;;;;;;;36.13;22.05;98766.22;5013538;28;20072;-62
2022/07/28 12:50:12;;;;;;;1.83;1.02;;;;;;;36.92;21.60;98764.88;5012289;28;20517;-62
2022/07/28 12:53:06;;;;;;;2.47;1.33;;;;;;;37.57;23.34;98762.31;5009942;28;20547;-59
2022/07/28 12:56:04;;;;;;;2.95;1.27;;;;;;;36.15;22.59;98757.78;5012648;28;20045;-70
2022/07/28 12:59:02;;;;;;;1.05;0.95;;;;;;;37.49;23.20;98757.47;5012464;28;20025;-63
2022/07/28 13:01:55;;;;;;;1.90;1.10;;;;;;;37.82;21.81;98752.28;5013463;28;20045;-65
2022/07/28 13:04:48;;;;;;;1.75;1.15;;;;;;;36.41;24.31;98752.28;5006890;28;20046;-64
2022/07/28 13:07:34;;;;;;;2.13;1.05;;;;;;;35.94;24.17;98753.16;5014817;28;20085;-63
2022/07/28 13:10:19;;;;;;;2.58;0.95;;;;;;;37.13;21.80;98742.13;5026530;28;20038;-63
2022/07/28 13:13:06;;;;;;;2.35;1.10;;;;;;;35.78;23.80;98752.38;5013372;28;20074;-62
2022/07/28 13:16:17;;;;;;;1.60;1.00;;;;;;;36.73;24.96;98737.41;5011983;28;20073;-59
2022/07/28 13:19:04;;;;;;;1.85;1.10;;;;;;;36.02;22.24;98754.53;4999340;28;20030;-62